Holland, Minnesota
Current Conditions -  °F | °C
As of 9:34 PM on Wednesday 22 Oct 2014 (Local Time) from KPQN Reporting Station
Haze Haze  
Wind Chill: 55°   Ceiling: 400
Heat Index: 55°   Visibility: 5mi
Dew Point: 54°   Wind: 6mph
Humidity: 94%   Direction: 260°W
Pressure: 30.01"   Gusts: NA
Location:  44.09°N, 96.19°W
Report Text: KPQN 230234Z AUTO 26005KT 5SM BR OVC004 13/12 A3001 RMK AO2
Loading
Personal Weather Stations






























Interactive Weather Map
Tropical Storm Tracking
New forecast layout! Learn more

10-Day Weather Forecast

Advertisements
Track Severe Weather on mobile